createdAt,value
2018-12-29T00:01:35.831Z,96255.89
2018-12-29T00:04:05.332Z,96258.31
2018-12-29T00:06:34.871Z,96256.91
2018-12-29T00:09:06.235Z,96258.96
2018-12-29T00:11:35.721Z,96255.33
2018-12-29T00:14:05.214Z,96261.07
2018-12-29T00:16:34.731Z,96259.91
2018-12-29T00:19:04.233Z,96254.98
2018-12-29T00:21:34.344Z,96257.25
2018-12-29T00:24:03.860Z,96255.92
2018-12-29T00:26:33.354Z,96263.41
2018-12-29T00:29:02.871Z,96259.91
2018-12-29T00:31:32.388Z,96265.44
2018-12-29T00:34:03.014Z,96265.44
2018-12-29T00:36:32.545Z,96270.78
2018-12-29T00:39:02.053Z,96265.79
2018-12-29T00:41:31.567Z,96268.47
2018-12-29T00:44:01.086Z,96269.16
2018-12-29T00:46:31.113Z,96271.07
2018-12-29T00:49:00.616Z,96274.66
2018-12-29T00:51:30.366Z,96280.45
2018-12-29T00:54:19.220Z,96286.45
2018-12-29T00:56:48.741Z,96287.41
2018-12-29T00:59:18.242Z,96287.19
2018-12-29T01:01:47.736Z,96286.52
2018-12-29T01:04:17.257Z,96281.06
2018-12-29T01:06:46.783Z,96284.44
2018-12-29T01:09:16.278Z,96283.97
2018-12-29T01:11:45.789Z,96275.36
2018-12-29T01:14:15.282Z,96290.08
2018-12-29T01:16:44.800Z,96290.81
2018-12-29T01:19:14.294Z,96289.68
2018-12-29T01:21:44.647Z,96278.25
2018-12-29T01:24:14.164Z,96284.52
2018-12-29T01:26:43.741Z,96289.23
2018-12-29T01:29:13.242Z,96298.11
2018-12-29T01:31:43.014Z,96309.72
2018-12-29T01:34:12.582Z,96310.89
2018-12-29T01:36:42.107Z,96310.16
2018-12-29T01:39:11.600Z,96299.58
2018-12-29T01:41:41.128Z,96300.60
2018-12-29T01:44:10.623Z,96299.72
2018-12-29T01:46:40.150Z,96298.55
2018-12-29T01:49:09.722Z,96305.48
2018-12-29T01:51:39.240Z,96308.50
2018-12-29T01:54:08.731Z,96298.75
2018-12-29T01:56:38.517Z,96305.14
2018-12-29T01:59:08.010Z,96295.19
2018-12-29T02:01:37.516Z,96299.48
2018-12-29T02:04:07.052Z,96291.58
2018-12-29T02:06:36.568Z,96292.09
2018-12-29T02:09:06.804Z,96292.89
2018-12-29T02:11:36.323Z,96291.97
2018-12-29T02:14:05.856Z,96293.36
2018-12-29T02:16:35.369Z,96293.81
2018-12-29T02:19:04.872Z,96296.10
2018-12-29T02:21:34.415Z,96291.85
2018-12-29T02:24:03.899Z,96295.83
2018-12-29T02:26:33.398Z,96291.41
2018-12-29T02:29:02.950Z,96284.66
2018-12-29T02:31:32.409Z,96274.02
2018-12-29T02:34:02.001Z,96265.40
2018-12-29T02:36:31.527Z,96259.59
2018-12-29T02:39:01.018Z,96258.23
2018-12-29T02:41:30.528Z,96264.11
2018-12-29T02:44:00.311Z,96262.84
2018-12-29T02:46:29.835Z,96269.06
2018-12-29T02:49:19.702Z,96271.68
2018-12-29T02:51:49.229Z,96270.30
2018-12-29T02:54:18.724Z,96275.02
2018-12-29T02:56:48.243Z,96280.56
2018-12-29T02:59:17.745Z,96282.94
2018-12-29T03:01:47.348Z,96286.20
2018-12-29T03:04:16.858Z,96284.23
2018-12-29T03:06:46.374Z,96279.31
2018-12-29T03:09:15.880Z,96276.70
2018-12-29T03:11:45.426Z,96275.69
2018-12-29T03:14:14.945Z,96263.42
2018-12-29T03:16:44.468Z,96257.53
2018-12-29T03:19:13.990Z,96253.29
2018-12-29T03:21:43.807Z,96252.39
2018-12-29T03:24:13.329Z,96247.11
2018-12-29T03:26:42.863Z,96252.60
2018-12-29T03:29:12.379Z,96255.92
2018-12-29T03:31:41.918Z,96260.56
2018-12-29T03:34:11.415Z,96260.12
2018-12-29T03:36:41.207Z,96257.94
2018-12-29T03:39:10.852Z,96253.29
2018-12-29T03:41:40.342Z,96253.86
2018-12-29T03:44:09.859Z,96251.45
2018-12-29T03:46:39.369Z,96253.02
2018-12-29T03:49:08.964Z,96250.00
2018-12-29T03:51:38.471Z,96269.38
2018-12-29T03:54:07.991Z,96273.63
2018-12-29T03:56:37.949Z,96260.75
2018-12-29T03:59:07.469Z,96260.03
2018-12-29T04:01:37.062Z,96252.00
2018-12-29T04:04:06.571Z,96249.41
2018-12-29T04:06:36.077Z,96252.53
2018-12-29T04:09:31.825Z,96243.05
2018-12-29T04:12:07.586Z,96250.93
2018-12-29T04:14:37.845Z,96250.47
2018-12-29T04:17:07.349Z,96242.89
2018-12-29T04:19:36.860Z,96240.20
2018-12-29T04:22:06.365Z,96243.41
2018-12-29T04:24:35.889Z,96246.20
2018-12-29T04:27:05.378Z,96250.16
2018-12-29T04:29:34.891Z,96254.30
2018-12-29T04:32:04.406Z,96250.86
2018-12-29T04:34:33.922Z,96256.23
2018-12-29T04:37:03.414Z,96254.29
2018-12-29T04:39:33.000Z,96246.81
2018-12-29T04:42:02.503Z,96252.04
2018-12-29T04:44:31.995Z,96249.13
2018-12-29T04:47:01.512Z,96259.91
2018-12-29T04:49:31.028Z,96251.91
2018-12-29T04:52:00.536Z,96254.34
2018-12-29T04:54:30.056Z,96258.07
2018-12-29T04:56:59.554Z,96262.30
2018-12-29T04:59:29.087Z,96270.02
2018-12-29T05:01:58.641Z,96273.56
2018-12-29T05:04:28.158Z,96276.05
2018-12-29T05:06:57.650Z,96277.73
2018-12-29T05:09:27.906Z,96274.32
2018-12-29T05:11:57.422Z,96273.83
2018-12-29T05:14:26.935Z,96269.31
2018-12-29T05:16:56.452Z,96272.90
2018-12-29T05:19:25.968Z,96269.84
2018-12-29T05:21:55.463Z,96274.90
2018-12-29T05:24:24.990Z,96284.13
2018-12-29T05:26:54.503Z,96290.07
2018-12-29T05:29:24.016Z,96292.14
2018-12-29T05:31:53.534Z,96298.81
2018-12-29T05:34:23.039Z,96288.20
2018-12-29T05:36:52.532Z,96297.70
2018-12-29T05:39:22.375Z,96307.45
2018-12-29T05:41:51.881Z,96312.02
2018-12-29T05:44:21.451Z,96324.35
2018-12-29T05:46:50.986Z,96334.83
2018-12-29T05:49:20.478Z,96351.02
2018-12-29T05:51:49.997Z,96356.48
2018-12-29T05:54:19.536Z,96344.41
2018-12-29T05:56:49.104Z,96350.37
2018-12-29T05:59:18.600Z,96344.66
2018-12-29T06:01:48.121Z,96328.63
2018-12-29T06:04:17.615Z,96349.27
2018-12-29T06:06:47.142Z,96341.16
2018-12-29T06:09:16.631Z,96328.68
2018-12-29T06:11:46.150Z,96336.72
2018-12-29T06:14:15.824Z,96325.75
2018-12-29T06:16:45.317Z,96337.87
2018-12-29T06:19:14.823Z,96346.48
2018-12-29T06:21:44.346Z,96346.44
2018-12-29T06:24:13.936Z,96359.84
2018-12-29T06:26:43.502Z,96365.25
2018-12-29T06:29:13.026Z,96376.09
2018-12-29T06:31:42.520Z,96384.17
2018-12-29T06:34:12.042Z,96389.98
2018-12-29T06:36:41.563Z,96397.58
2018-12-29T06:39:11.068Z,96400.20
2018-12-29T06:41:40.606Z,96398.28
2018-12-29T06:44:10.083Z,96387.53
2018-12-29T06:46:39.577Z,96391.62
2018-12-29T06:49:09.120Z,96384.56
2018-12-29T06:51:39.241Z,96383.36
2018-12-29T06:54:08.889Z,96379.81
2018-12-29T06:56:38.392Z,96378.73
2018-12-29T06:59:07.916Z,96374.09
2018-12-29T07:01:37.409Z,96378.22
2018-12-29T07:04:06.921Z,96380.43
2018-12-29T07:06:36.418Z,96390.25
2018-12-29T07:09:07.583Z,96392.38
2018-12-29T07:11:38.623Z,96396.37
2018-12-29T07:14:08.174Z,96388.16
2018-12-29T07:16:42.284Z,96386.39
2018-12-29T07:19:08.924Z,96384.66
2018-12-29T07:21:38.495Z,96389.80
2018-12-29T07:24:08.019Z,96396.29
2018-12-29T07:26:37.523Z,96399.09
2018-12-29T07:29:07.052Z,96401.56
2018-12-29T07:31:36.551Z,96395.44
2018-12-29T07:34:06.071Z,96395.50
2018-12-29T07:36:35.642Z,96402.12
2018-12-29T07:39:06.676Z,96399.38
2018-12-29T07:41:36.249Z,96399.32
2018-12-29T07:44:05.758Z,96396.03
2018-12-29T07:46:35.257Z,96400.89
2018-12-29T07:49:04.770Z,96411.70
2018-12-29T07:51:34.278Z,96412.20
2018-12-29T07:54:03.797Z,96408.27
2018-12-29T07:56:33.292Z,96402.92
2018-12-29T07:59:02.839Z,96400.58
2018-12-29T08:01:32.341Z,96390.27
2018-12-29T08:04:01.846Z,96385.98
2018-12-29T08:06:31.366Z,96395.28
2018-12-29T08:09:00.884Z,96397.53
2018-12-29T08:11:30.376Z,96395.56
2018-12-29T08:13:59.897Z,96401.45
2018-12-29T08:16:29.410Z,96398.67
2018-12-29T08:18:58.905Z,96408.09
2018-12-29T08:21:28.544Z,96410.16
2018-12-29T08:23:58.067Z,96419.49
2018-12-29T08:26:27.552Z,96421.23
2018-12-29T08:28:57.085Z,96425.86
2018-12-29T08:31:26.581Z,96424.64
2018-12-29T08:33:56.094Z,96432.23
2018-12-29T08:36:25.602Z,96436.78
2018-12-29T08:38:55.105Z,96445.33
2018-12-29T08:41:24.626Z,96443.90
2018-12-29T08:43:54.141Z,96449.84
2018-12-29T08:46:23.722Z,96450.72
2018-12-29T08:48:53.215Z,96442.70
2018-12-29T08:51:22.777Z,96458.42
2018-12-29T08:53:52.251Z,96460.11
2018-12-29T08:56:21.760Z,96462.99
2018-12-29T08:58:51.277Z,96473.08
2018-12-29T09:01:20.768Z,96479.11
2018-12-29T09:03:50.291Z,96484.02
2018-12-29T09:06:19.794Z,96491.75
2018-12-29T09:08:49.320Z,96496.38
2018-12-29T09:11:18.823Z,96495.34
2018-12-29T09:13:48.355Z,96493.74
2018-12-29T09:16:17.851Z,96500.55
2018-12-29T09:18:49.818Z,96507.31
2018-12-29T09:21:18.657Z,96512.73
2018-12-29T09:23:48.351Z,96512.38
2018-12-29T09:26:17.853Z,96511.44
2018-12-29T09:28:47.353Z,96513.34
2018-12-29T09:31:18.212Z,96515.78
2018-12-29T09:33:47.794Z,96515.50
2018-12-29T09:36:17.285Z,96521.95
2018-12-29T09:38:46.821Z,96518.33
2018-12-29T09:41:16.355Z,96522.09
2018-12-29T09:43:45.960Z,96523.79
2018-12-29T09:46:15.446Z,96516.08
2018-12-29T09:48:44.941Z,96511.17
2018-12-29T09:51:14.910Z,96517.76
2018-12-29T09:53:44.449Z,96521.05
2018-12-29T09:56:13.969Z,96515.42
2018-12-29T09:58:43.507Z,96515.03
2018-12-29T10:01:13.039Z,96518.50
2018-12-29T10:03:42.581Z,96516.91
2018-12-29T10:06:12.114Z,96515.93
2018-12-29T10:08:41.629Z,96510.11
2018-12-29T10:11:11.137Z,96515.06
2018-12-29T10:13:40.636Z,96521.47
2018-12-29T10:16:11.391Z,96521.74
2018-12-29T10:18:40.891Z,96521.45
2018-12-29T10:21:10.486Z,96530.64
2018-12-29T10:23:39.986Z,96522.67
2018-12-29T10:26:09.509Z,96518.89
2018-12-29T10:28:40.102Z,96525.34
2018-12-29T10:31:09.622Z,96521.78
2018-12-29T10:33:39.154Z,96516.05
2018-12-29T10:36:08.655Z,96507.66
2018-12-29T10:38:38.180Z,96503.31
2018-12-29T10:41:08.788Z,96501.73
2018-12-29T10:43:57.624Z,96508.67
2018-12-29T10:46:40.521Z,96451.86
2018-12-29T10:49:10.092Z,96506.16
2018-12-29T10:51:39.583Z,96499.98
2018-12-29T10:54:09.118Z,96500.68
2018-12-29T10:56:38.639Z,96505.36
2018-12-29T10:59:08.154Z,96500.42
2018-12-29T11:01:37.695Z,96501.13
2018-12-29T11:04:07.257Z,96507.02
2018-12-29T11:06:36.745Z,96500.52
2018-12-29T11:09:07.453Z,96495.95
2018-12-29T11:11:37.051Z,96497.56
2018-12-29T11:14:06.534Z,96496.11
2018-12-29T11:16:36.162Z,96497.64
2018-12-29T11:19:06.594Z,96498.65
2018-12-29T11:21:36.134Z,96495.37
2018-12-29T11:24:05.668Z,96497.89
2018-12-29T11:26:35.214Z,96498.88
2018-12-29T11:29:04.681Z,96497.50
2018-12-29T11:31:34.949Z,96494.33
2018-12-29T11:34:04.440Z,96491.89
2018-12-29T11:36:33.959Z,96486.78
2018-12-29T11:39:04.509Z,96489.20
2018-12-29T11:41:34.206Z,96492.63
2018-12-29T11:44:03.690Z,96489.45
2018-12-29T11:46:33.189Z,96483.39
2018-12-29T11:49:02.733Z,96485.94
2018-12-29T11:51:32.239Z,96482.58
2018-12-29T11:54:01.735Z,96480.59
2018-12-29T11:56:32.768Z,96478.23
2018-12-29T11:59:02.260Z,96474.45
2018-12-29T12:01:31.752Z,96473.81
2018-12-29T12:04:01.260Z,96478.89
2018-12-29T12:06:30.797Z,96480.09
2018-12-29T12:09:01.127Z,96480.65
2018-12-29T12:11:30.902Z,96471.36
2018-12-29T12:14:00.659Z,96481.06
2018-12-29T12:16:30.144Z,96476.02
2018-12-29T12:18:59.767Z,96477.55
2018-12-29T12:21:30.363Z,96473.68
2018-12-29T12:23:59.850Z,96470.14
2018-12-29T12:26:29.341Z,96469.39
2018-12-29T12:28:59.085Z,96462.23
2018-12-29T12:31:28.910Z,96458.51
2018-12-29T12:33:58.588Z,96462.94
2018-12-29T12:36:28.561Z,96453.27
2018-12-29T12:38:58.050Z,96457.39
2018-12-29T12:41:28.797Z,96460.16
2018-12-29T12:43:58.776Z,96461.77
2018-12-29T12:46:28.365Z,96455.53
2018-12-29T12:48:58.276Z,96454.47
2018-12-29T12:51:29.001Z,96445.41
2018-12-29T12:53:58.580Z,96448.80
2018-12-29T12:56:28.066Z,96444.28
2018-12-29T12:58:57.601Z,96440.33
2018-12-29T13:01:27.603Z,96443.77
2018-12-29T13:03:57.119Z,96441.03
2018-12-29T13:06:26.609Z,96431.17
2018-12-29T13:08:56.126Z,96434.94
2018-12-29T13:11:26.039Z,96428.92
2018-12-29T13:13:55.572Z,96428.39
2018-12-29T13:16:25.112Z,96426.19
2018-12-29T13:18:54.637Z,96422.94
2018-12-29T13:21:24.124Z,96419.08
2018-12-29T13:23:53.840Z,96418.04
2018-12-29T13:26:23.663Z,96419.95
2018-12-29T13:28:53.764Z,96424.80
2018-12-29T13:31:23.312Z,96419.48
2018-12-29T13:33:52.867Z,96416.88
2018-12-29T13:36:22.681Z,96419.23
2018-12-29T13:38:52.218Z,96414.27
2018-12-29T13:41:21.710Z,96412.45
2018-12-29T13:43:51.234Z,96408.70
2018-12-29T13:46:21.006Z,96402.28
2018-12-29T13:48:50.550Z,96410.32
2018-12-29T13:51:20.512Z,96406.28
2018-12-29T13:53:50.043Z,96412.64
2018-12-29T13:56:19.539Z,96411.48
2018-12-29T13:58:49.078Z,96408.72
2018-12-29T14:01:18.621Z,96405.59
2018-12-29T14:03:48.172Z,96406.48
2018-12-29T14:06:17.659Z,96397.66
2018-12-29T14:08:47.512Z,96404.59
2018-12-29T14:11:17.005Z,96403.95
2018-12-29T14:13:46.538Z,96390.13
2018-12-29T14:16:16.752Z,96387.30
2018-12-29T14:18:46.228Z,96382.20
2018-12-29T14:21:15.779Z,96384.66
2018-12-29T14:23:45.303Z,96386.73
2018-12-29T14:26:14.841Z,96386.81
2018-12-29T14:28:45.064Z,96385.06
2018-12-29T14:31:14.566Z,96379.77
2018-12-29T14:33:44.085Z,96383.98
2018-12-29T14:36:13.639Z,96383.30
2018-12-29T14:38:43.179Z,96378.05
2018-12-29T14:41:13.311Z,96378.41
2018-12-29T14:43:42.917Z,96376.32
2018-12-29T14:46:12.443Z,96375.35
2018-12-29T14:48:41.981Z,96369.99
2018-12-29T14:51:11.466Z,96369.07
2018-12-29T14:53:41.542Z,96374.28
2018-12-29T14:56:11.080Z,96371.34
2018-12-29T14:58:40.601Z,96362.29
2018-12-29T15:01:10.105Z,96350.98
2018-12-29T15:03:39.636Z,96349.14
2018-12-29T15:06:09.557Z,96335.01
2018-12-29T15:08:39.045Z,96337.77
2018-12-29T15:11:08.554Z,96332.19
2018-12-29T15:13:38.091Z,96324.31
2018-12-29T15:16:07.589Z,96322.09
2018-12-29T15:18:43.631Z,96321.63
2018-12-29T15:21:09.317Z,96322.77
2018-12-29T15:23:38.928Z,96312.36
2018-12-29T15:26:08.766Z,96318.73
2018-12-29T15:28:38.378Z,96320.63
2018-12-29T15:31:07.884Z,96320.45
2018-12-29T15:33:37.758Z,96326.10
2018-12-29T15:36:07.284Z,96325.94
2018-12-29T15:38:37.178Z,96319.96
2018-12-29T15:41:06.707Z,96317.22
2018-12-29T15:43:36.276Z,96319.31
2018-12-29T15:46:05.788Z,96316.34
2018-12-29T15:48:35.330Z,96317.31
2018-12-29T15:51:04.885Z,96318.88
2018-12-29T15:53:34.434Z,96324.23
2018-12-29T15:56:03.983Z,96323.27
2018-12-29T15:58:33.487Z,96327.98
2018-12-29T16:01:03.042Z,96326.38
2018-12-29T16:03:32.541Z,96338.98
2018-12-29T16:06:02.091Z,96344.44
2018-12-29T16:08:31.659Z,96335.55
2018-12-29T16:11:01.206Z,96331.78
2018-12-29T16:13:30.712Z,96337.51
2018-12-29T16:16:00.294Z,96330.45
2018-12-29T16:18:30.068Z,96326.02
2018-12-29T16:20:59.625Z,96325.95
2018-12-29T16:23:29.383Z,96327.56
2018-12-29T16:25:58.928Z,96321.12
2018-12-29T16:28:28.484Z,96321.22
2018-12-29T16:30:58.108Z,96311.79
2018-12-29T16:33:27.609Z,96306.55
2018-12-29T16:35:58.235Z,96304.14
2018-12-29T16:38:27.742Z,96302.30
2018-12-29T16:40:58.137Z,96290.66
2018-12-29T16:43:27.657Z,96296.20
2018-12-29T16:45:57.205Z,96295.79
2018-12-29T16:48:26.715Z,96291.22
2018-12-29T16:50:56.394Z,96293.34
2018-12-29T16:53:29.430Z,96290.03
2018-12-29T16:55:57.443Z,96292.97
2018-12-29T16:58:27.022Z,96281.42
2018-12-29T17:00:56.814Z,96288.39
2018-12-29T17:03:26.353Z,96276.36
2018-12-29T17:05:55.904Z,96264.45
2018-12-29T17:08:27.154Z,96252.00
2018-12-29T17:10:56.834Z,96249.41
2018-12-29T17:13:26.340Z,96249.72
2018-12-29T17:15:55.912Z,96239.59
2018-12-29T17:18:25.522Z,96227.67
2018-12-29T17:20:55.065Z,96226.68
2018-12-29T17:23:24.911Z,96232.80
2018-12-29T17:25:54.466Z,96210.06
2018-12-29T17:28:24.241Z,96206.91
2018-12-29T17:30:53.788Z,96214.77
2018-12-29T17:33:23.290Z,96211.81
2018-12-29T17:35:53.057Z,96219.56
2018-12-29T17:38:22.844Z,96211.22
2018-12-29T17:40:52.354Z,96192.95
2018-12-29T17:43:22.066Z,96196.42
2018-12-29T17:45:51.626Z,96196.73
2018-12-29T17:48:21.253Z,96184.14
2018-12-29T17:50:50.794Z,96184.81
2018-12-29T17:53:20.566Z,96186.47
2018-12-29T17:55:50.375Z,96190.41
2018-12-29T17:58:19.877Z,96190.58
2018-12-29T18:00:49.493Z,96203.25
2018-12-29T18:03:18.987Z,96213.47
2018-12-29T18:05:48.880Z,96208.85
2018-12-29T18:08:18.450Z,96208.99
2018-12-29T18:10:48.069Z,96210.69
2018-12-29T18:13:17.928Z,96208.45
2018-12-29T18:15:47.484Z,96202.06
2018-12-29T18:18:17.870Z,96193.50
2018-12-29T18:20:47.486Z,96191.33
2018-12-29T18:23:17.277Z,96194.48
2018-12-29T18:25:46.829Z,96201.95
2018-12-29T18:28:16.429Z,96208.38
2018-12-29T18:30:47.364Z,96219.27
2018-12-29T18:33:17.207Z,96219.22
2018-12-29T18:35:46.756Z,96228.14
2018-12-29T18:38:16.370Z,96221.70
2018-12-29T18:40:45.909Z,96226.94
2018-12-29T18:43:16.274Z,96231.11
2018-12-29T18:45:45.872Z,96221.98
2018-12-29T18:48:15.705Z,96216.48
2018-12-29T18:50:45.170Z,96220.37
2018-12-29T18:53:14.787Z,96221.89
2018-12-29T18:55:45.527Z,96211.88
2018-12-29T18:58:15.450Z,96226.33
2018-12-29T19:00:44.951Z,96210.11
2018-12-29T19:03:14.799Z,96216.22
2018-12-29T19:05:44.350Z,96195.39
2018-12-29T19:08:14.355Z,96194.38
2018-12-29T19:10:43.862Z,96182.84
2018-12-29T19:13:13.782Z,96179.11
2018-12-29T19:15:43.634Z,96186.24
2018-12-29T19:18:13.431Z,96175.53
2018-12-29T19:20:43.457Z,96178.47
2018-12-29T19:23:13.448Z,96177.38
2018-12-29T19:25:43.100Z,96194.89
2018-12-29T19:28:13.204Z,96187.09
2018-12-29T19:30:42.711Z,96169.58
2018-12-29T19:33:13.070Z,96177.39
2018-12-29T19:35:42.619Z,96168.61
2018-12-29T19:38:12.467Z,96160.45
2018-12-29T19:40:42.316Z,96171.94
2018-12-29T19:43:12.241Z,96169.44
2018-12-29T19:45:41.825Z,96149.27
2018-12-29T19:48:11.393Z,96141.42
2018-12-29T19:50:40.999Z,96154.70
2018-12-29T19:53:11.275Z,96149.25
2018-12-29T19:55:40.798Z,96145.66
2018-12-29T19:58:10.489Z,96131.98
2018-12-29T20:00:40.503Z,96132.61
2018-12-29T20:03:11.328Z,96139.63
2018-12-29T20:05:41.269Z,96136.17
2018-12-29T20:08:10.881Z,96118.36
2018-12-29T20:10:40.384Z,96119.37
2018-12-29T20:13:10.137Z,96128.86
2018-12-29T20:15:39.726Z,96150.78
2018-12-29T20:18:09.262Z,96147.30
2018-12-29T20:20:38.873Z,96128.86
2018-12-29T20:23:08.421Z,96128.79
2018-12-29T20:25:37.960Z,96139.89
2018-12-29T20:28:07.508Z,96139.05
2018-12-29T20:30:37.009Z,96150.36
2018-12-29T20:33:06.552Z,96132.66
2018-12-29T20:35:36.072Z,96113.47
2018-12-29T20:38:05.614Z,96113.47
2018-12-29T20:40:35.314Z,96106.42
2018-12-29T20:43:04.845Z,96098.01
2018-12-29T20:45:34.394Z,96092.89
2018-12-29T20:48:03.947Z,96085.88
2018-12-29T20:50:33.446Z,96105.95
2018-12-29T20:53:02.998Z,96120.29
2018-12-29T20:55:32.507Z,96119.09
2018-12-29T20:58:02.105Z,96113.14
2018-12-29T21:00:31.705Z,96112.73
2018-12-29T21:03:01.334Z,96116.61
2018-12-29T21:05:30.832Z,96137.75
2018-12-29T21:08:00.393Z,96144.05
2018-12-29T21:10:29.910Z,96139.05
2018-12-29T21:12:59.455Z,96147.69
2018-12-29T21:15:29.798Z,96145.61
2018-12-29T21:17:59.342Z,96149.86
2018-12-29T21:20:28.844Z,96156.77
2018-12-29T21:22:58.394Z,96140.24
2018-12-29T21:25:27.918Z,96129.02
2018-12-29T21:27:57.746Z,96130.38
2018-12-29T21:30:27.321Z,96126.22
2018-12-29T21:32:56.898Z,96102.75
2018-12-29T21:35:26.455Z,96097.66
2018-12-29T21:37:56.002Z,96114.56
2018-12-29T21:40:25.801Z,96122.73
2018-12-29T21:42:55.335Z,96118.03
2018-12-29T21:45:24.834Z,96120.84
2018-12-29T21:47:54.382Z,96134.22
2018-12-29T21:50:25.659Z,96130.38
2018-12-29T21:52:55.158Z,96135.94
2018-12-29T21:55:24.662Z,96133.11
2018-12-29T21:57:54.157Z,96131.55
2018-12-29T22:00:23.923Z,96132.13
2018-12-29T22:02:53.426Z,96119.23
2018-12-29T22:05:23.371Z,96122.06
2018-12-29T22:07:53.671Z,96116.31
2018-12-29T22:10:23.191Z,96108.88
2018-12-29T22:12:52.741Z,96099.17
2018-12-29T22:15:22.241Z,96093.86
2018-12-29T22:17:51.744Z,96095.16
2018-12-29T22:20:22.541Z,96081.75
2018-12-29T22:22:52.038Z,96083.41
2018-12-29T22:25:21.576Z,96069.08
2018-12-29T22:27:51.314Z,96052.77
2018-12-29T22:30:20.819Z,96053.52
2018-12-29T22:32:50.307Z,96045.69
2018-12-29T22:35:19.851Z,96049.38
2018-12-29T22:37:49.354Z,96031.94
2018-12-29T22:40:18.975Z,96030.30
2018-12-29T22:42:48.468Z,96033.27
2018-12-29T22:45:18.004Z,96013.98
2018-12-29T22:47:47.583Z,96001.50
2018-12-29T22:50:17.124Z,95990.56
2018-12-29T22:52:46.623Z,95988.05
2018-12-29T22:55:16.127Z,95969.42
2018-12-29T22:57:46.898Z,95975.08
2018-12-29T23:00:18.038Z,95964.27
2018-12-29T23:02:47.705Z,95962.64
2018-12-29T23:05:17.500Z,95973.68
2018-12-29T23:07:46.995Z,95978.52
2018-12-29T23:10:16.719Z,95970.06
2018-12-29T23:12:46.572Z,95984.59
2018-12-29T23:15:16.093Z,95992.48
2018-12-29T23:17:45.590Z,95980.95
2018-12-29T23:20:15.108Z,95978.23
2018-12-29T23:22:44.959Z,95975.20
2018-12-29T23:25:14.465Z,95979.42
2018-12-29T23:27:44.134Z,95976.44
2018-12-29T23:30:13.921Z,95976.77
2018-12-29T23:32:43.688Z,95975.70
2018-12-29T23:35:14.272Z,95979.05
2018-12-29T23:37:43.779Z,95976.22
2018-12-29T23:40:13.285Z,95976.67
2018-12-29T23:42:42.806Z,95985.29
2018-12-29T23:45:12.326Z,95984.73
2018-12-29T23:47:42.659Z,95990.34
2018-12-29T23:50:12.170Z,95994.05
2018-12-29T23:52:41.936Z,95978.91
2018-12-29T23:55:11.438Z,95983.27
2018-12-29T23:57:41.168Z,95985.64
